KNMI Weerbulletins

Hier vind u de KMNI verwachtingen en de waarnemingen

Bron: KNMI website
Laatste update op 18-10-2017 om 04:00
ZCZC
FBNL50 EHDB 171846
WEERBULLETIN VOOR DE LUCHTVAART
.
GELDIG VOOR: DE DAGLICHTPERIODE VAN WOENSDAG 18 OKTOBER 2017.
.
SITUATIE: EEN VRIJWEL INACTIEF WARMTEFRONT LIGT BOVEN HET NOORDEN,
TREKT ZEER LANGZAAM NOORDWAARTS EN VERLAAT HALVERWEGE DE MIDDAG DE
WADDEN. NABIJ HET WARMTEFRONT IS DE AANGEVOERDE LUCHT WARM EN
VOCHTIG, ELDERS IS DE LUCHT DROGER MAAR TOT CA. 08 UTC NOG VRIJ
VOCHTIG ONDER EEN GRONDINVERSIE. DE STROMING IS ZUID TOT
ZUIDOOSTELIJK EN WORDT IN DE MIDDAG ONSTABIEL TOT 2000 VT.
.
SIGNIFICANT WEER: TOT CA. 08 UTC LOKAAL NEVEL EN OF GRONDMIST EN
MOGELIJK IN HET NOORDEN EN ZUIDOOSTEN MIST.
.
WIND: OOSTELIJK ROND 5 KN. IN DE OCHTEND LANGS DE (ZUID)WESTKUST, IN
DE MIDDAG LANGS DE NOORDWESTKUST EN BOVEN HET IJSSELMEER, 10-15 KN.
VANAF CA. 09 UTC, MET UITZONDERING VAN HET NOORDEN, VAN HET ZUIDEN
UIT GELEIDELIJK ZUIDOOSTELIJK.
.
BEWOLKING: BIJ MIST TOT CA. 08 UTC MOGELIJK BKN ST BENEDEN 500 VT.
NABIJ HET WARMTEFRONT BKN SC 3000-5000 VT, TOPPEN 8000 VT. IN DE
MIDDAG LOKAAL FEW CU ROND 1500 VT, TOPPEN 2000 VT. AAN HET EINDE VAN
DE PERIODE IN HET WESTEN BKN AS 8000 VT, TOPPEN BOVEN FL100.
.
ZICHT: MEER DAN 10 KM. IN DE OCHTEND TOT CA. 08 UTC BIJ NEVEL EN
GRONDMIST LOKAAL 1500-5000 M EN MOGELIJK MINDER DAN 1500 M.
.
NULGRADEN NIVEAU: IN HET NOORDWESTEN ROND FL095, ELDERS BOVEN FL100.
.
THERMIEK: VANAF CA. 10 UTC IN OPKLARINGEN ZWAK, SPOEDIG LOKAAL MATIG.
EINDE THERMIEK 15 UTC.
.
DAGLICHTPERIODE: 05.55 TOT 16.54 UTC.=
NNNN
Bron: KNMI website
Laatste update op 18-10-2017 om 04:00
ZCZC
FC171600 EHVK     VOLKEL/VOLKEL   NLD   21 m.
TAF EHVK 171600Z NIL=
ZCZC
FC171600 EHWO     WOENSDRECHT/WOENSDRECHT   NLD   19 m.
TAF EHWO 171600Z NIL=
ZCZC
FC171600 EHGR CCA GILZE-RIJEN/GILZE-RIJEN   NLD   14 m.
TAF AMD EHGR 171641Z 1718/1805 CNL=
ZCZC
FT172300 EHAM     AMSTERDAM/SCHIPHOL   NLD   -3 m.
TAF COR EHAM 172300Z 1800/1906 VRB02KT 9999 BKN035
    BECMG 1801/1804 09006KT
    PROB40 1803/1808 5000 BR
    BECMG 1820/1823 4000 MIFG BR
    PROB30 1822/1906 1200 BCFG NSC=
ZCZC
FT172300 EHBK     MAASTRICHT/MAASTRICHT-AACHEN   NLD   114 m.
TAF EHBK 172301Z 1800/1906 13006KT 4000 BR NSC
    TEMPO 1800/1808 1800
    PROB30 TEMPO 1800/1808 1200 BCFG
    BECMG 1807/1810 CAVOK=
ZCZC
FT172300 EHGG     GRONINGEN/EELDE   NLD   5 m.
TAF EHGG 172301Z 1800/1906 23004KT 7000 NSC
    BECMG 1800/1802 4000 BR MIFG
    TEMPO 1800/1807 1200 BCFG
    PROB40 TEMPO 1800/1807 0400 FG VV001
    BECMG 1806/1809 9999 NSW BKN030
    BECMG 1818/1821 4000 BR MIFG
    PROB30 TEMPO 1820/1906 0600 FG BKN001=
ZCZC
FT172300 EHRD     ROTTERDAM/THE HAGUE AIRPORT   NLD   -5 m.
TAF EHRD 172251Z 1800/1906 09005KT 9999 BKN035
    PROB40 1803/1808 5000 BR
    BECMG 1818/1821 4000 MIFG BR
    PROB30 1821/1906 1200 BCFG NSC=
ZCZC
FT172300 EHEH     EINDHOVEN/EINDHOVEN   NLD   22 m.
TAF COR EHEH 172333Z 1800/1906 04003KT 9999 OVC045
    PROB40 TEMPO 1803/1808 4500 BR FEW040
    BECMG 1808/1811 18006KT=
ZCZC
FC180000 EHLW RRB LEEUWARDEN/LEEUWARDEN   NLD   1 m.
TAF EHLW 180014Z 1801/1813 VRB03KT 9000 FEW055 BKN350
    PROB40 1801/1806 3000 BR MIFG
    PROB30 TEMPO 1803/1806 0800 BCFG
    BECMG 1807/1810 10007KT 9999 SCT040=
ZCZC
FC180100 EHKD     DE KOOY/DE KOOY   NLD   1 m.
TAF EHKD 180101Z 1801/1813 VRB02KT 9000 BR BKN055
    BECMG 1806/1809 10010KT FEW020 BKN040=
Bron: KNMI website
Laatste update op 18-10-2017 om 04:00
ZCZC
SA180125 EHKD     DE KOOY/DE KOOY   NLD   1 m.
METAR EHKD 180125Z AUTO 17004KT 9999 OVC055 10/09 Q1016 BLU=
ZCZC
SA180125 EHFD     F3-FB-1   NLD   50 m.
METAR EHFD 180125Z AUTO ///20KT 9999 FEW013/// SCT015/// BKN024///
13/10 Q1014=
ZCZC
SA180125 EHAM     AMSTERDAM/SCHIPHOL   NLD   -3 m.
METAR EHAM 180125Z 13002KT 9999 FEW035 BKN049 11/11 Q1016 NOSIG=
ZCZC
SA180125 EHVL     VLIELAND   NLD   10 m.
METAR EHVL 180125Z AUTO 28009KT 9999 BKN310 OVC370 13/10 Q1015 BLU=
ZCZC
SA180125 EHJR     K13-A   NLD   37 m.
METAR EHJR 180125Z NIL=
ZCZC
SA180125 EHLW     LEEUWARDEN/LEEUWARDEN   NLD   1 m.
METAR EHLW 180125Z AUTO 17004KT 080V190 8000 BR OVC057 10/10 Q1016 BLU=
ZCZC
SA180125 EHDL     ARNHEM/DEELEN   NLD   48 m.
METAR EHDL 180125Z AUTO VRB01KT 8000 BR FEW034 OVC043 12/11 Q1016
BLACKBLU=
ZCZC
SA180125 EHGG     GRONINGEN/EELDE   NLD   5 m.
METAR EHGG 180125Z AUTO VRB02KT 0600 R23/0800N FG FEW012 07/06 Q1016=
ZCZC
SA180125 EHSC     LICHTEILAND GOEREE   NLD   22 m.
METAR EHSC 180125Z NIL=
ZCZC
SA180125 EHSA     EURO PLATFORM   NLD   19 m.
METAR EHSA 180125Z NIL=
ZCZC
SA180125 EHWO     WOENSDRECHT/WOENSDRECHT   NLD   19 m.
METAR EHWO 180125Z AUTO 06006KT 030V090 9999 BKN037 BKN047 BKN053
13/12 Q1015 BLU=
ZCZC
SA180125 EHRD     ROTTERDAM/THE HAGUE AIRPORT   NLD   -5 m.
METAR EHRD 180125Z AUTO 05004KT 9999 OVC031 13/12 Q1016 NOSIG=
ZCZC
SA180125 EHGR     GILZE-RIJEN/GILZE-RIJEN   NLD   14 m.
METAR EHGR 180125Z AUTO 05005KT 010V110 9000 BR OVC028 13/11 Q1015 BLU=
ZCZC
SA180125 EHEH     EINDHOVEN/EINDHOVEN   NLD   22 m.
METAR EHEH 180125Z AUTO 03008KT 9999 SCT043 BKN047 BKN280 13/12 Q1015
 BLU=
ZCZC
SA180125 EHVK     VOLKEL/VOLKEL   NLD   21 m.
METAR EHVK 180125Z AUTO 02006KT 9000 BR OVC033 13/12 Q1016 BLU=
ZCZC
SA180125 EHBK     MAASTRICHT/MAASTRICHT-AACHEN   NLD   114 m.
METAR EHBK 180125Z AUTO 13004KT 6000 NSC 13/12 Q1015=
ZCZC
SA180125 EHFZ     F16-A   NLD   43 m.
METAR EHFZ 180125Z AUTO 26010KT 9999 FEW022 14/09 Q1015=
ZCZC
SA180125 EHKV     K14-FA-1C   NLD   41 m.
METAR EHKV 180125Z AUTO VRB08KT 9999 NSC 14/09 Q1016=
ZCZC
SA180125 EHMG     L9-FF-1   NLD   44 m.
METAR EHMG 180125Z AUTO 27009KT 9999 FEW022 14/09 Q1015=
ZCZC
SA180125 EHMA     AWG-1   NLD   40 m.
METAR EHMA 180125Z AUTO 24009KT 9999 NSC 13/11 Q1016=
ZCZC
SA180125 EHDV     D15-FA-1   NLD   42 m.
METAR EHDV 180125Z AUTO VRB15KT 9999 NSC 13/09 Q1014=
ZCZC
SA180125 EHAK     A12-CPP   NLD   48 m.
METAR EHAK 180125Z AUTO 27016KT //// // FEW010/// BKN012/// BKN015///
12/10 Q1013=
ZCZC
SA180125 EHQE     HOORN-A   NLD   50 m.
METAR EHQE 180125Z AUTO 31004KT 9999 NSC 15/10 Q1015=
ZCZC
SA180125 EHJA     J6-A   NLD   45 m.
METAR EHJA 180125Z AUTO 26013KT //// // NSC 13/08 Q1015 RE//=
ZCZC
SA180125 EHPG     P11-B   NLD   41 m.
METAR EHPG 180125Z AUTO 36003KT 310V050 9999 OVC038 15/// Q1015=
ZCZC
SA180125 EHHW     BUITENGAATS/BG-OHVS2      42 m.
METAR EHHW 180125Z AUTO 28013KT 250V310 9999 ///////// 15/08 Q1015=
ZCZC
SA180125 EHFS     VLISSINGEN AWS   NLD   8 m.
METAR EHFS 180125Z AUTO 03009KT 9999 FEW046/// 14/12 Q1015=